createdAt,value
2023-09-17T00:01:55.381Z,2.42
2023-09-17T00:04:22.531Z,3.80
2023-09-17T00:06:49.511Z,2.22
2023-09-17T00:09:16.519Z,1.67
2023-09-17T00:11:43.601Z,1.65
2023-09-17T00:14:10.832Z,3.55
2023-09-17T00:16:40.074Z,1.60
2023-09-17T00:19:08.118Z,2.53
2023-09-17T00:21:35.145Z,2.03
2023-09-17T00:24:02.309Z,2.13
2023-09-17T00:26:29.259Z,2.47
2023-09-17T00:28:56.195Z,1.50
2023-09-17T00:31:23.382Z,1.55
2023-09-17T00:33:50.570Z,2.05
2023-09-17T00:36:17.583Z,2.25
2023-09-17T00:38:44.510Z,4.00
2023-09-17T00:41:11.529Z,1.67
2023-09-17T00:43:38.519Z,1.55
2023-09-17T00:46:06.213Z,2.35
2023-09-17T00:48:33.422Z,1.65
2023-09-17T00:51:00.778Z,1.52
2023-09-17T00:53:28.288Z,2.38
2023-09-17T00:55:56.128Z,2.35
2023-09-17T00:58:24.145Z,2.40
2023-09-17T01:00:52.098Z,4.63
2023-09-17T01:03:19.356Z,3.47
2023-09-17T01:05:47.291Z,2.40
2023-09-17T01:08:14.634Z,1.52
2023-09-17T01:10:42.085Z,2.42
2023-09-17T01:13:10.520Z,4.75
2023-09-17T01:15:38.189Z,1.38
2023-09-17T01:18:07.142Z,1.05
2023-09-17T01:20:42.621Z,1.17
2023-09-17T01:23:38.493Z,1.83
2023-09-17T01:26:14.884Z,1.38
2023-09-17T01:28:42.311Z,1.27
2023-09-17T01:31:10.753Z,1.38
2023-09-17T01:33:37.853Z,1.30
2023-09-17T01:36:10.431Z,1.13
2023-09-17T01:38:47.710Z,1.27
2023-09-17T01:41:17.093Z,0.80
2023-09-17T01:43:46.071Z,1.52
2023-09-17T01:46:13.512Z,1.33
2023-09-17T01:48:44.087Z,1.33
2023-09-17T01:51:12.972Z,1.63
2023-09-17T01:53:40.323Z,2.00
2023-09-17T01:56:07.304Z,0.77
2023-09-17T01:58:35.401Z,2.13
2023-09-17T02:01:02.678Z,1.27
2023-09-17T02:03:30.589Z,1.30
2023-09-17T02:05:57.971Z,0.88
2023-09-17T02:08:25.099Z,1.30
2023-09-17T02:10:52.151Z,1.00
2023-09-17T02:13:19.119Z,1.30
2023-09-17T02:15:46.760Z,0.68
2023-09-17T02:18:13.971Z,2.70
2023-09-17T02:20:41.535Z,0.80
2023-09-17T02:23:10.850Z,2.78
2023-09-17T02:25:37.872Z,1.55
2023-09-17T02:28:05.356Z,1.02
2023-09-17T02:30:32.573Z,0.55
2023-09-17T02:32:59.759Z,1.20
2023-09-17T02:35:26.866Z,0.68
2023-09-17T02:37:53.967Z,1.50
2023-09-17T02:40:22.653Z,2.25
2023-09-17T02:42:51.195Z,0.77
2023-09-17T02:45:20.309Z,1.08
2023-09-17T02:47:47.575Z,2.17
2023-09-17T02:50:14.653Z,1.60
2023-09-17T02:52:41.748Z,2.45
2023-09-17T02:55:09.931Z,2.28
2023-09-17T02:57:37.251Z,0.80
2023-09-17T03:00:10.673Z,2.05
2023-09-17T03:02:40.593Z,2.28
2023-09-17T03:05:12.193Z,0.82
2023-09-17T03:07:44.932Z,1.20
2023-09-17T03:10:13.236Z,3.28
2023-09-17T03:12:40.448Z,1.17
2023-09-17T03:15:08.455Z,0.70
2023-09-17T03:17:39.011Z,2.17
2023-09-17T03:20:15.575Z,1.60
2023-09-17T03:22:42.788Z,3.20
2023-09-17T03:25:10.074Z,0.90
2023-09-17T03:27:37.115Z,2.08
2023-09-17T03:30:07.531Z,2.28
2023-09-17T03:32:34.698Z,1.10
2023-09-17T03:35:02.625Z,1.02
2023-09-17T03:37:29.659Z,1.17
2023-09-17T03:40:26.239Z,0.82
2023-09-17T03:42:53.755Z,1.40
2023-09-17T03:45:21.157Z,2.50
2023-09-17T03:47:49.031Z,1.50
2023-09-17T03:50:21.577Z,3.55
2023-09-17T03:52:53.285Z,0.85
2023-09-17T03:55:21.383Z,1.15
2023-09-17T03:57:49.547Z,2.03
2023-09-17T04:00:17.356Z,0.90
2023-09-17T04:02:45.532Z,2.45
2023-09-17T04:05:15.239Z,1.02
2023-09-17T04:07:45.437Z,7.80
2023-09-17T04:10:13.614Z,5.53
2023-09-17T04:12:42.063Z,0.60
2023-09-17T04:15:29.398Z,1.02
2023-09-17T04:17:56.521Z,1.40
2023-09-17T04:20:25.545Z,1.10
2023-09-17T04:22:52.534Z,3.22
2023-09-17T04:25:21.937Z,1.38
2023-09-17T04:27:49.951Z,6.60
2023-09-17T04:30:18.240Z,3.63
2023-09-17T04:32:47.454Z,5.43
2023-09-17T04:35:19.200Z,4.25
2023-09-17T04:37:48.376Z,3.20
2023-09-17T04:40:15.761Z,5.03
2023-09-17T04:42:47.558Z,8.97
2023-09-17T04:45:49.467Z,3.15
2023-09-17T04:48:17.755Z,1.27
2023-09-17T04:50:48.085Z,3.75
2023-09-17T04:53:16.353Z,9.73
2023-09-17T04:55:43.382Z,4.20
2023-09-17T04:58:10.375Z,8.45
2023-09-17T05:00:38.421Z,6.15
2023-09-17T05:03:05.623Z,4.93
2023-09-17T05:05:32.718Z,4.95
2023-09-17T05:07:59.697Z,4.70
2023-09-17T05:10:27.486Z,6.32
2023-09-17T05:12:54.672Z,5.82
2023-09-17T05:15:22.707Z,1.27
2023-09-17T05:17:50.625Z,4.25
2023-09-17T05:20:19.797Z,4.85
2023-09-17T05:22:46.797Z,4.00
2023-09-17T05:25:13.815Z,3.80
2023-09-17T05:27:40.801Z,2.83
2023-09-17T05:30:08.355Z,3.28
2023-09-17T05:32:35.714Z,4.13
2023-09-17T05:35:04.788Z,1.95
2023-09-17T05:37:32.602Z,4.97
2023-09-17T05:40:00.194Z,8.88
2023-09-17T05:42:27.823Z,2.55
2023-09-17T05:44:54.835Z,11.23
2023-09-17T05:47:22.482Z,9.05
2023-09-17T05:49:49.600Z,9.48
2023-09-17T05:52:17.813Z,5.18
2023-09-17T05:54:44.803Z,11.70
2023-09-17T05:57:12.734Z,15.95
2023-09-17T05:59:39.813Z,10.05
2023-09-17T06:02:07.711Z,12.02
2023-09-17T06:04:34.676Z,10.63
2023-09-17T06:07:01.736Z,2.20
2023-09-17T06:09:28.883Z,7.50
2023-09-17T06:11:55.937Z,8.25
2023-09-17T06:14:23.039Z,10.10
2023-09-17T06:16:57.265Z,5.47
2023-09-17T06:19:24.912Z,4.32
2023-09-17T06:21:52.192Z,4.00
2023-09-17T06:24:19.199Z,6.75
2023-09-17T06:26:46.286Z,3.65
2023-09-17T06:29:13.445Z,6.68
2023-09-17T06:31:41.701Z,6.60
2023-09-17T06:34:09.392Z,4.30
2023-09-17T06:36:38.671Z,1.55
2023-09-17T06:39:08.232Z,2.25
2023-09-17T06:41:38.277Z,1.98
2023-09-17T06:44:06.188Z,5.88
2023-09-17T06:46:36.596Z,2.10
2023-09-17T06:49:04.032Z,5.45
2023-09-17T06:51:31.494Z,8.35
2023-09-17T06:53:59.199Z,7.72
2023-09-17T06:56:26.722Z,2.63
2023-09-17T06:58:54.343Z,6.95
2023-09-17T07:01:22.211Z,3.58
2023-09-17T07:03:49.982Z,3.58
2023-09-17T07:06:17.900Z,2.40
2023-09-17T07:08:45.239Z,6.30
2023-09-17T07:11:12.712Z,3.67
2023-09-17T07:13:41.349Z,3.60
2023-09-17T07:16:08.865Z,6.57
2023-09-17T07:18:36.019Z,5.00
2023-09-17T07:21:03.237Z,3.63
2023-09-17T07:23:31.382Z,9.80
2023-09-17T07:25:58.700Z,6.95
2023-09-17T07:28:27.440Z,6.75
2023-09-17T07:30:57.020Z,4.18
2023-09-17T07:33:24.873Z,4.97
2023-09-17T07:35:52.195Z,5.45
2023-09-17T07:38:19.529Z,2.67
2023-09-17T07:40:48.553Z,2.08
2023-09-17T07:43:15.671Z,7.20
2023-09-17T07:45:42.723Z,4.70
2023-09-17T07:48:09.875Z,3.67
2023-09-17T07:50:36.882Z,3.47
2023-09-17T07:53:03.972Z,2.80
2023-09-17T07:55:31.565Z,5.85
2023-09-17T07:57:58.864Z,2.22
2023-09-17T08:00:26.677Z,3.13
2023-09-17T08:02:53.869Z,5.68
2023-09-17T08:05:21.199Z,2.67
2023-09-17T08:07:48.517Z,3.50
2023-09-17T08:10:15.759Z,2.58
2023-09-17T08:12:42.854Z,1.90
2023-09-17T08:15:10.236Z,2.45
2023-09-17T08:17:38.328Z,4.50
2023-09-17T08:20:08.764Z,4.50
2023-09-17T08:22:35.930Z,2.13
2023-09-17T08:25:03.176Z,0.88
2023-09-17T08:27:30.123Z,3.75
2023-09-17T08:29:57.213Z,4.20
2023-09-17T08:32:24.162Z,8.65
2023-09-17T08:34:51.200Z,3.38
2023-09-17T08:37:19.019Z,5.55
2023-09-17T08:39:46.067Z,10.45
2023-09-17T08:42:14.241Z,6.95
2023-09-17T08:44:43.591Z,8.77
2023-09-17T08:47:10.581Z,8.05
2023-09-17T08:49:37.790Z,14.45
2023-09-17T08:52:08.221Z,4.43
2023-09-17T08:54:42.265Z,4.72
2023-09-17T08:57:12.120Z,4.15
2023-09-17T08:59:44.766Z,5.95
2023-09-17T09:02:24.946Z,3.67
2023-09-17T09:04:52.786Z,5.35
2023-09-17T09:07:23.786Z,2.35
2023-09-17T09:09:52.993Z,4.15
2023-09-17T09:12:20.564Z,4.40
2023-09-17T09:14:48.744Z,3.67
2023-09-17T09:17:15.938Z,5.35
2023-09-17T09:19:43.162Z,4.22
2023-09-17T09:22:10.606Z,4.80
2023-09-17T09:24:48.616Z,12.15
2023-09-17T09:27:15.973Z,5.57
2023-09-17T09:29:45.990Z,5.15
2023-09-17T09:32:14.687Z,4.55
2023-09-17T09:34:43.632Z,4.72
2023-09-17T09:37:11.413Z,5.72
2023-09-17T09:39:39.263Z,11.10
2023-09-17T09:42:07.322Z,6.88
2023-09-17T09:44:36.461Z,11.00
2023-09-17T09:47:04.469Z,8.18
2023-09-17T09:49:41.291Z,5.63
2023-09-17T09:52:08.662Z,9.35
2023-09-17T09:54:39.287Z,7.20
2023-09-17T09:57:06.713Z,7.18
2023-09-17T09:59:38.208Z,6.88
2023-09-17T10:02:06.575Z,3.38
2023-09-17T10:04:39.351Z,5.38
2023-09-17T10:07:07.100Z,9.93
2023-09-17T10:09:34.858Z,11.20
2023-09-17T10:12:01.948Z,12.63
2023-09-17T10:14:29.180Z,12.15
2023-09-17T10:16:57.202Z,12.98
2023-09-17T10:19:27.427Z,15.77
2023-09-17T10:21:57.374Z,14.30
2023-09-17T10:24:25.333Z,14.95
2023-09-17T10:26:53.164Z,15.00
2023-09-17T10:29:22.764Z,10.20
2023-09-17T10:31:50.574Z,19.98
2023-09-17T10:34:19.652Z,7.65
2023-09-17T10:36:49.116Z,10.07
2023-09-17T10:39:16.630Z,15.63
2023-09-17T10:41:46.492Z,8.02
2023-09-17T10:44:16.446Z,12.57
2023-09-17T10:46:47.030Z,6.40
2023-09-17T10:49:15.020Z,5.22
2023-09-17T10:51:45.589Z,5.88
2023-09-17T10:54:12.949Z,6.47
2023-09-17T10:56:43.225Z,5.35
2023-09-17T10:59:14.947Z,9.17
2023-09-17T11:01:44.647Z,4.05
2023-09-17T11:04:17.682Z,4.88
2023-09-17T11:06:48.226Z,4.40
2023-09-17T11:09:16.751Z,5.72
2023-09-17T11:11:45.200Z,5.60
2023-09-17T11:14:14.048Z,4.88
2023-09-17T11:16:41.609Z,10.05
2023-09-17T11:19:14.939Z,10.77
2023-09-17T11:21:49.219Z,12.75
2023-09-17T11:24:19.514Z,10.18
2023-09-17T11:26:47.714Z,5.77
2023-09-17T11:29:16.279Z,9.18
2023-09-17T11:31:55.902Z,18.65
2023-09-17T11:34:23.285Z,18.08
2023-09-17T11:36:52.013Z,20.27
2023-09-17T11:39:22.075Z,23.95
2023-09-17T11:42:04.508Z,26.92
2023-09-17T11:44:35.538Z,39.78
2023-09-17T11:47:02.972Z,36.75
2023-09-17T11:49:30.513Z,26.10
2023-09-17T11:51:58.875Z,24.00
2023-09-17T11:54:32.504Z,17.75
2023-09-17T11:56:59.700Z,21.25
2023-09-17T11:59:28.472Z,22.40
2023-09-17T12:01:59.086Z,24.52
2023-09-17T12:04:29.359Z,19.17
2023-09-17T12:07:00.038Z,13.15
2023-09-17T12:09:41.315Z,14.95
2023-09-17T12:12:08.859Z,17.42
2023-09-17T12:14:37.602Z,22.80
2023-09-17T12:17:05.506Z,14.20
2023-09-17T12:19:33.104Z,28.42
2023-09-17T12:22:01.491Z,12.32
2023-09-17T12:24:36.159Z,16.20
2023-09-17T12:27:10.064Z,15.40
2023-09-17T12:29:38.918Z,13.52
2023-09-17T12:32:06.893Z,12.35
2023-09-17T12:34:37.836Z,13.52
2023-09-17T12:37:11.128Z,13.52
2023-09-17T12:39:38.758Z,9.75
2023-09-17T12:42:05.821Z,13.38
2023-09-17T12:44:33.578Z,9.27
2023-09-17T12:47:00.894Z,8.95
2023-09-17T12:49:28.531Z,6.72
2023-09-17T12:51:55.868Z,6.18
2023-09-17T12:54:24.495Z,10.02
2023-09-17T12:56:52.456Z,18.35
2023-09-17T12:59:36.184Z,15.77
2023-09-17T13:02:05.337Z,22.27
2023-09-17T13:04:44.662Z,26.15
2023-09-17T13:07:25.005Z,24.23
2023-09-17T13:09:57.141Z,18.23
2023-09-17T13:12:25.724Z,16.88
2023-09-17T13:14:53.737Z,22.00
2023-09-17T13:17:27.273Z,19.30
2023-09-17T13:19:55.603Z,24.25
2023-09-17T13:22:23.987Z,28.38
2023-09-17T13:24:51.319Z,19.50
2023-09-17T13:27:20.173Z,12.25
2023-09-17T13:29:55.593Z,35.22
2023-09-17T13:32:23.160Z,18.25
2023-09-17T13:34:51.352Z,25.88
2023-09-17T13:37:20.073Z,20.40
2023-09-17T13:39:51.179Z,32.97
2023-09-17T13:42:18.534Z,21.50
2023-09-17T13:44:46.145Z,20.17
2023-09-17T13:47:13.600Z,21.67
2023-09-17T13:49:43.020Z,21.85
2023-09-17T13:52:11.366Z,23.13
2023-09-17T13:54:40.577Z,20.33
2023-09-17T13:57:08.150Z,21.27
2023-09-17T13:59:35.515Z,17.75
2023-09-17T14:02:05.748Z,28.20
2023-09-17T14:04:34.753Z,20.38
2023-09-17T14:07:02.703Z,16.48
2023-09-17T14:09:30.243Z,16.27
2023-09-17T14:11:57.301Z,16.55
2023-09-17T14:14:25.281Z,17.60
2023-09-17T14:16:52.574Z,21.48
2023-09-17T14:19:20.399Z,12.43
2023-09-17T14:21:48.945Z,12.60
2023-09-17T14:24:16.479Z,13.00
2023-09-17T14:26:44.511Z,13.40
2023-09-17T14:29:11.594Z,10.77
2023-09-17T14:31:40.918Z,11.73
2023-09-17T14:34:10.849Z,10.77
2023-09-17T14:36:38.793Z,13.85
2023-09-17T14:39:06.464Z,8.27
2023-09-17T14:41:33.683Z,31.77
2023-09-17T14:44:00.781Z,19.92
2023-09-17T14:46:30.789Z,22.13
2023-09-17T14:48:57.870Z,9.95
2023-09-17T14:51:24.983Z,14.27
2023-09-17T14:53:52.138Z,12.55
2023-09-17T14:56:19.568Z,8.70
2023-09-17T14:58:47.280Z,11.32
2023-09-17T15:01:26.756Z,9.77
2023-09-17T15:04:02.329Z,4.82
2023-09-17T15:06:31.171Z,5.05
2023-09-17T15:08:58.831Z,5.72
2023-09-17T15:11:26.292Z,16.85
2023-09-17T15:13:53.983Z,13.43
2023-09-17T15:16:22.202Z,7.00
2023-09-17T15:18:52.339Z,6.55
2023-09-17T15:21:19.976Z,10.97
2023-09-17T15:23:47.093Z,4.82
2023-09-17T15:26:14.169Z,8.73
2023-09-17T15:28:44.849Z,8.55
2023-09-17T15:31:12.165Z,5.35
2023-09-17T15:33:40.572Z,4.35
2023-09-17T15:36:08.548Z,5.30
2023-09-17T15:38:35.724Z,4.38
2023-09-17T15:41:04.973Z,27.90
2023-09-17T15:43:36.845Z,19.80
2023-09-17T15:46:07.152Z,9.38
2023-09-17T15:48:36.156Z,4.17
2023-09-17T15:51:05.194Z,10.93
2023-09-17T15:53:33.504Z,6.80
2023-09-17T15:56:01.107Z,11.15
2023-09-17T15:58:28.185Z,12.80
2023-09-17T16:00:56.555Z,11.00
2023-09-17T16:03:23.726Z,7.25
2023-09-17T16:05:51.551Z,6.68
2023-09-17T16:08:18.844Z,8.25
2023-09-17T16:10:46.149Z,9.55
2023-09-17T16:13:14.330Z,8.23
2023-09-17T16:15:43.420Z,13.27
2023-09-17T16:18:10.638Z,9.70
2023-09-17T16:20:38.443Z,15.30
2023-09-17T16:23:05.641Z,10.63
2023-09-17T16:25:34.104Z,12.93
2023-09-17T16:28:03.126Z,24.08
2023-09-17T16:30:30.547Z,23.20
2023-09-17T16:32:58.491Z,19.45
2023-09-17T16:35:25.848Z,12.55
2023-09-17T16:37:54.763Z,16.08
2023-09-17T16:40:22.821Z,18.10
2023-09-17T16:43:05.734Z,17.38
2023-09-17T16:45:38.234Z,18.98
2023-09-17T16:48:06.250Z,16.60
2023-09-17T16:50:33.945Z,12.70
2023-09-17T16:53:01.359Z,14.07
2023-09-17T16:55:29.381Z,12.65
2023-09-17T16:57:56.728Z,11.35
2023-09-17T17:00:25.715Z,9.93
2023-09-17T17:02:53.260Z,13.07
2023-09-17T17:05:21.100Z,11.70
2023-09-17T17:07:48.755Z,11.25
2023-09-17T17:10:16.427Z,11.23
2023-09-17T17:12:43.981Z,12.93
2023-09-17T17:15:12.244Z,9.80
2023-09-17T17:17:39.926Z,12.10
2023-09-17T17:20:08.451Z,10.25
2023-09-17T17:22:49.908Z,7.20
2023-09-17T17:25:21.121Z,10.48
2023-09-17T17:30:17.368Z,9.18
2023-09-17T17:32:46.677Z,5.00
2023-09-17T17:35:16.249Z,6.43
2023-09-17T17:37:45.317Z,17.30
2023-09-17T17:40:12.664Z,8.75
2023-09-17T17:42:39.926Z,6.88
2023-09-17T17:45:08.255Z,10.93
2023-09-17T17:47:35.568Z,5.88
2023-09-17T17:50:02.985Z,6.22
2023-09-17T17:52:30.328Z,7.75
2023-09-17T17:54:58.597Z,5.68
2023-09-17T17:57:26.013Z,5.78
2023-09-17T17:59:53.189Z,8.27
2023-09-17T18:02:20.436Z,21.20
2023-09-17T18:04:50.533Z,49.85
2023-09-17T18:07:17.906Z,38.30
2023-09-17T18:09:46.361Z,47.40
2023-09-17T18:12:14.492Z,44.88
2023-09-17T18:14:42.468Z,34.05
2023-09-17T18:17:10.008Z,27.77
2023-09-17T18:19:37.546Z,30.67
2023-09-17T18:22:05.495Z,27.80
2023-09-17T18:24:33.023Z,34.30
2023-09-17T18:27:00.377Z,24.27
2023-09-17T18:29:32.035Z,25.55
2023-09-17T18:31:59.727Z,23.50
2023-09-17T18:34:29.058Z,20.52
2023-09-17T18:36:57.953Z,19.35
2023-09-17T18:39:26.579Z,23.80
2023-09-17T18:41:54.513Z,19.38
2023-09-17T18:44:22.073Z,18.67
2023-09-17T18:46:56.769Z,13.30
2023-09-17T18:49:34.866Z,16.05
2023-09-17T18:52:06.298Z,12.88
2023-09-17T18:54:40.114Z,13.60
2023-09-17T18:57:10.000Z,10.90
2023-09-17T18:59:38.632Z,15.50
2023-09-17T19:02:06.629Z,11.25
2023-09-17T19:04:36.839Z,11.38
2023-09-17T19:07:04.643Z,13.43
2023-09-17T19:09:33.509Z,12.77
2023-09-17T19:12:05.546Z,13.48
2023-09-17T19:14:37.165Z,14.40
2023-09-17T19:17:09.331Z,17.15
2023-09-17T19:19:37.374Z,7.32
2023-09-17T19:22:10.770Z,11.15
2023-09-17T19:24:38.741Z,9.18
2023-09-17T19:27:07.370Z,12.32
2023-09-17T19:29:36.040Z,14.77
2023-09-17T19:32:05.469Z,9.23
2023-09-17T19:34:35.187Z,7.22
2023-09-17T19:37:03.257Z,8.10
2023-09-17T19:39:40.652Z,9.25
2023-09-17T19:42:12.755Z,8.70
2023-09-17T19:44:42.154Z,6.35
2023-09-17T19:47:11.759Z,6.03
2023-09-17T19:49:40.993Z,6.22
2023-09-17T19:52:08.654Z,5.40
2023-09-17T19:54:36.468Z,4.97
2023-09-17T19:57:06.143Z,5.05
2023-09-17T19:59:34.620Z,3.90
2023-09-17T20:02:02.990Z,7.25
2023-09-17T20:04:32.851Z,13.30
2023-09-17T20:07:02.452Z,5.70
2023-09-17T20:09:32.667Z,6.90
2023-09-17T20:12:01.255Z,4.93
2023-09-17T20:14:29.485Z,4.75
2023-09-17T20:16:57.583Z,8.00
2023-09-17T20:19:25.415Z,11.80
2023-09-17T20:21:53.303Z,6.68
2023-09-17T20:24:22.196Z,3.72
2023-09-17T20:26:49.383Z,13.60
2023-09-17T20:29:16.757Z,10.50
2023-09-17T20:31:44.194Z,8.70
2023-09-17T20:34:16.333Z,9.45
2023-09-17T20:36:44.619Z,3.30
2023-09-17T20:39:16.004Z,5.65
2023-09-17T20:41:46.937Z,6.78
2023-09-17T20:46:42.286Z,5.38
2023-09-17T20:49:11.059Z,6.80
2023-09-17T20:51:38.534Z,4.57
2023-09-17T20:54:07.947Z,5.15
2023-09-17T20:56:36.008Z,5.70
2023-09-17T20:59:03.630Z,7.03
2023-09-17T21:01:31.016Z,8.77
2023-09-17T21:03:58.487Z,3.78
2023-09-17T21:06:26.262Z,5.53
2023-09-17T21:08:54.050Z,5.30
2023-09-17T21:11:21.615Z,4.30
2023-09-17T21:13:49.077Z,15.70
2023-09-17T21:16:17.857Z,11.65
2023-09-17T21:18:53.489Z,6.95
2023-09-17T21:21:35.779Z,9.27
2023-09-17T21:24:12.995Z,7.95
2023-09-17T21:26:42.654Z,9.13
2023-09-17T21:29:13.299Z,6.03
2023-09-17T21:31:44.176Z,5.47
2023-09-17T21:34:15.992Z,7.70
2023-09-17T21:36:45.149Z,6.45
2023-09-17T21:39:14.559Z,3.33
2023-09-17T21:41:43.662Z,3.58
2023-09-17T21:44:11.599Z,4.85
2023-09-17T21:46:39.103Z,7.40
2023-09-17T21:49:06.605Z,3.38
2023-09-17T21:51:34.714Z,3.60
2023-09-17T21:54:02.832Z,4.95
2023-09-17T21:56:30.567Z,6.30
2023-09-17T21:58:58.027Z,3.80
2023-09-17T22:01:28.239Z,3.03
2023-09-17T22:03:56.625Z,5.72
2023-09-17T22:06:26.834Z,3.38
2023-09-17T22:08:54.816Z,2.90
2023-09-17T22:11:23.967Z,2.35
2023-09-17T22:13:51.383Z,4.10
2023-09-17T22:16:18.665Z,2.75
2023-09-17T22:18:46.957Z,2.97
2023-09-17T22:21:14.494Z,3.53
2023-09-17T22:23:42.001Z,3.72
2023-09-17T22:26:10.418Z,2.95
2023-09-17T22:28:42.429Z,1.88
2023-09-17T22:31:17.285Z,4.22
2023-09-17T22:33:46.283Z,5.38
2023-09-17T22:36:14.194Z,4.28
2023-09-17T22:38:43.987Z,1.38
2023-09-17T22:41:19.873Z,3.05
2023-09-17T22:43:49.944Z,2.10
2023-09-17T22:46:18.335Z,2.08
2023-09-17T22:48:56.123Z,1.98
2023-09-17T22:51:24.796Z,3.70
2023-09-17T22:53:54.844Z,3.28
2023-09-17T22:56:22.156Z,2.53
2023-09-17T22:58:49.637Z,5.25
2023-09-17T23:01:21.289Z,4.93
2023-09-17T23:03:48.640Z,2.35
2023-09-17T23:06:15.642Z,2.03
2023-09-17T23:08:43.427Z,2.38
2023-09-17T23:11:11.024Z,3.42
2023-09-17T23:13:38.037Z,2.72
2023-09-17T23:16:05.778Z,2.03
2023-09-17T23:18:34.183Z,2.67
2023-09-17T23:21:05.186Z,2.80
2023-09-17T23:23:32.853Z,2.45
2023-09-17T23:26:02.873Z,2.67
2023-09-17T23:28:34.618Z,1.75
2023-09-17T23:31:07.915Z,3.17
2023-09-17T23:33:35.228Z,1.70
2023-09-17T23:36:05.577Z,3.78
2023-09-17T23:38:32.742Z,3.00
2023-09-17T23:40:59.941Z,3.80
2023-09-17T23:43:27.168Z,2.92
2023-09-17T23:45:54.258Z,2.47
2023-09-17T23:48:21.324Z,1.80
2023-09-17T23:50:51.941Z,1.10
2023-09-17T23:53:19.069Z,1.88
2023-09-17T23:55:49.690Z,2.25
2023-09-17T23:58:18.277Z,1.98
